»·PEaware :: N132BU KSBA-KSNA

N132BU :: KSBA-KSNA

FLIGHT INFORMATION

Flight Status: Arrived
Operator: Privately registered:
United States
More flights under this callsign
Pilot: Oliver B. (21155)
Aircraft: PIPER PA-46-310/350P MALIBU MIRAGE
(PA46)
More flights by this aircraft type
Origin: KSBA Santa Barbara Mun
United States
Destination: KSNA John Wayne-Orange Co
United States
More flights between these airports :: More routes between these airports
Route: +KWANG CMA VNY V186 BAYJY V363 POXKU V8 SLI
File this flight plan on PilotEdge
Remarks: SBAP6
Altitude:
(Current/Filed)
5,000ft
Speed:
(Current/Filed)
180kts
Departed: 05-Oct-19 12:14 PM
Arrived: 05-Oct-19 12:59 PM
Distance/Time
Traveled:
108nm/0:45
Distance/Time
To Go:
Arrived

Flight Plot

Page will automatically refresh every two minutes.


Map Options




Map Legend


Flown Route
Filed Route
Departure Airport
Arrival Airport
Navaid (VOR, NDB)
Fix

Horizontal Profiles

Position Reports

Time Latitude Longitude Heading Altitude Ground
Speed
05-Oct-19 11:13 34.424017 -119.836891 75 13ft 0kts
05-Oct-19 11:14 34.424017 -119.836890 75 13ft 0kts
05-Oct-19 11:15 34.424017 -119.836890 75 13ft 0kts
05-Oct-19 11:16 34.424017 -119.836890 75 13ft 0kts
05-Oct-19 11:17 34.424017 -119.836890 75 13ft 0kts
05-Oct-19 11:18 34.424017 -119.836890 75 13ft 0kts
05-Oct-19 11:19 34.424017 -119.836890 75 13ft 0kts
05-Oct-19 11:20 34.424017 -119.836890 75 13ft 0kts
05-Oct-19 11:21 34.424017 -119.836890 75 13ft 0kts
05-Oct-19 11:22 34.424017 -119.836890 75 13ft 0kts
05-Oct-19 11:23 34.424017 -119.836890 75 13ft 0kts
05-Oct-19 11:24 34.424017 -119.836890 75 13ft 0kts
05-Oct-19 11:25 34.424017 -119.836890 75 13ft 0kts
05-Oct-19 11:26 34.424017 -119.836890 75 13ft 0kts
05-Oct-19 11:27 34.424017 -119.836890 75 13ft 0kts
05-Oct-19 11:28 34.424017 -119.836890 75 13ft 0kts
05-Oct-19 11:29 34.424017 -119.836890 75 13ft 0kts
05-Oct-19 11:30 34.424017 -119.836890 75 13ft 0kts
05-Oct-19 11:31 34.424017 -119.836890 75 13ft 0kts
05-Oct-19 11:32 34.424017 -119.836890 75 13ft 0kts
05-Oct-19 11:33 34.424017 -119.836890 75 13ft 0kts
05-Oct-19 11:34 34.424017 -119.836890 75 13ft 0kts
05-Oct-19 11:35 34.424017 -119.836890 75 13ft 0kts
05-Oct-19 11:36 34.424017 -119.836890 75 13ft 0kts
05-Oct-19 11:37 34.424017 -119.836890 75 13ft 0kts
05-Oct-19 11:38 34.424017 -119.836890 75 13ft 0kts
05-Oct-19 11:39 34.424017 -119.836890 75 13ft 0kts
05-Oct-19 11:40 34.424017 -119.836890 75 13ft 0kts
05-Oct-19 11:41 34.424017 -119.836890 75 13ft 0kts
05-Oct-19 11:42 34.424017 -119.836890 75 13ft 0kts
05-Oct-19 11:43 34.424017 -119.836890 75 13ft 0kts
05-Oct-19 11:44 34.424017 -119.836890 75 13ft 0kts
05-Oct-19 11:45 34.424017 -119.836890 75 13ft 0kts
05-Oct-19 11:46 34.424017 -119.836890 75 13ft 0kts
05-Oct-19 11:47 34.424017 -119.836890 75 13ft 0kts
05-Oct-19 11:48 34.424017 -119.836890 75 13ft 0kts
05-Oct-19 11:49 34.424017 -119.836890 75 13ft 0kts
05-Oct-19 11:50 34.424017 -119.836890 75 13ft 0kts
05-Oct-19 11:51 34.424017 -119.836890 75 13ft 0kts
05-Oct-19 11:52 34.424017 -119.836890 75 13ft 0kts
05-Oct-19 11:53 34.424017 -119.836890 75 13ft 0kts
05-Oct-19 11:54 34.424017 -119.836890 75 13ft 0kts
05-Oct-19 11:55 34.424017 -119.836890 75 13ft 0kts
05-Oct-19 11:56 34.424017 -119.836890 75 13ft 0kts
05-Oct-19 11:57 34.424017 -119.836890 75 13ft 0kts
05-Oct-19 11:58 34.424017 -119.836890 75 13ft 0kts
05-Oct-19 11:59 34.424017 -119.836890 75 13ft 0kts
05-Oct-19 12:00 34.424017 -119.836890 75 13ft 0kts
05-Oct-19 12:01 34.424017 -119.836890 75 13ft 0kts
05-Oct-19 12:02 34.424017 -119.836890 75 13ft 0kts
05-Oct-19 12:03 34.424017 -119.836890 75 13ft 0kts
05-Oct-19 12:04 34.424017 -119.836890 75 13ft 0kts
05-Oct-19 12:05 34.424457 -119.837498 340 13ft 11kts
05-Oct-19 12:06 34.426462 -119.838249 348 13ft 11kts
05-Oct-19 12:07 34.429545 -119.839198 345 13ft 12kts
05-Oct-19 12:08 34.430218 -119.839405 346 13ft 0kts
05-Oct-19 12:09 34.430520 -119.839519 332 13ft 2kts
05-Oct-19 12:10 34.430669 -119.839754 265 13ft 0kts
05-Oct-19 12:11 34.430668 -119.839755 265 13ft 0kts
05-Oct-19 12:12 34.430666 -119.839786 265 13ft 2kts
05-Oct-19 12:13 34.417675 -119.836465 168 99ft 117kts
05-Oct-19 12:14 34.383081 -119.824343 164 1737ft 130kts
05-Oct-19 12:15 34.347213 -119.811925 164 3558ft 137kts
05-Oct-19 12:16 34.309295 -119.799456 157 4970ft 161kts
05-Oct-19 12:17 34.306547 -119.748118 67 5188ft 190kts
05-Oct-19 12:18 34.314309 -119.686672 88 5235ft 186kts
05-Oct-19 12:19 34.313604 -119.622486 91 4964ft 192kts
05-Oct-19 12:20 34.312414 -119.558782 93 4979ft 188kts
05-Oct-19 12:21 34.304849 -119.498468 103 4982ft 189kts
05-Oct-19 12:22 34.291952 -119.439567 105 4981ft 188kts
05-Oct-19 12:23 34.278007 -119.378255 105 4980ft 188kts
05-Oct-19 12:24 34.263702 -119.316028 105 5004ft 196kts
05-Oct-19 12:25 34.249663 -119.254963 105 5010ft 199kts
05-Oct-19 12:26 34.235044 -119.191611 105 4997ft 192kts
05-Oct-19 12:27 34.220464 -119.128908 105 4995ft 194kts
05-Oct-19 12:28 34.213879 -119.064120 90 4994ft 197kts
05-Oct-19 12:29 34.221692 -118.999378 96 4926ft 197kts
05-Oct-19 12:30 34.218836 -118.933679 89 4928ft 195kts
05-Oct-19 12:31 34.219808 -118.868186 90 4996ft 193kts
05-Oct-19 12:32 34.218779 -118.804236 91 5010ft 195kts
05-Oct-19 12:33 34.219644 -118.738779 88 5013ft 196kts
05-Oct-19 12:34 34.220895 -118.675946 89 5027ft 196kts
05-Oct-19 12:35 34.221745 -118.610262 89 5019ft 194kts
05-Oct-19 12:36 34.222704 -118.545169 89 5017ft 196kts
05-Oct-19 12:37 34.219857 -118.481335 108 5008ft 196kts
05-Oct-19 12:38 34.201140 -118.419485 110 5024ft 196kts
05-Oct-19 12:39 34.182338 -118.357651 110 5018ft 194kts
05-Oct-19 12:40 34.164079 -118.297130 110 5015ft 193kts
05-Oct-19 12:41 34.145533 -118.236342 110 5014ft 193kts
05-Oct-19 12:42 34.127024 -118.175351 110 5019ft 195kts
05-Oct-19 12:43 34.109979 -118.120094 110 5027ft 194kts
05-Oct-19 12:44 34.091130 -118.058545 110 5024ft 194kts
05-Oct-19 12:45 34.072400 -117.997519 110 5032ft 195kts
05-Oct-19 12:46 34.053494 -117.936244 110 5022ft 192kts
05-Oct-19 12:47 34.035128 -117.876263 111 5020ft 195kts
05-Oct-19 12:48 34.016201 -117.814870 110 5017ft 195kts
05-Oct-19 12:49 33.976534 -117.784068 179 4663ft 182kts
05-Oct-19 12:50 33.926525 -117.784235 178 4168ft 182kts
05-Oct-19 12:51 33.877533 -117.777525 154 3810ft 179kts
05-Oct-19 12:52 33.832106 -117.758505 203 3311ft 180kts
05-Oct-19 12:53 33.796858 -117.793007 195 2529ft 140kts
05-Oct-19 12:54 33.764957 -117.813116 203 1815ft 132kts
05-Oct-19 12:55 33.734812 -117.831378 208 1231ft 107kts
05-Oct-19 12:56 33.708919 -117.847652 206 665ft 101kts
05-Oct-19 12:57 33.685283 -117.862833 209 152ft 93kts
05-Oct-19 12:58 33.675686 -117.869295 301 59ft 4kts
05-Oct-19 12:59 33.676031 -117.870362 236 59ft 6kts
05-Oct-19 13:00 33.673666 -117.872942 210 59ft 0kts
05-Oct-19 13:01 33.673666 -117.872942 210 59ft 0kts
05-Oct-19 13:02 33.673666 -117.872942 210 59ft 0kts
05-Oct-19 13:03 33.673666 -117.872942 210 59ft 0kts
05-Oct-19 13:04 33.673666 -117.872942 210 59ft 0kts
05-Oct-19 13:05 33.673666 -117.872943 210 59ft 0kts

Navigation Log

Ident Type
Flight plan parsing failed, navigation log unavailable